createdAt,value
2023-03-22T00:00:12.895Z,99578.78
2023-03-22T00:00:44.683Z,99583.16
2023-03-22T00:01:19.906Z,99576.94
2023-03-22T00:01:53.810Z,99576.94
2023-03-22T00:02:26.438Z,99582.97
2023-03-22T00:02:58.375Z,99576.09
2023-03-22T00:03:30.379Z,99580.47
2023-03-22T00:04:02.250Z,99585.84
2023-03-22T00:04:34.069Z,99579.78
2023-03-22T00:05:06.424Z,99582.78
2023-03-22T00:05:40.068Z,99579.25
2023-03-22T00:06:12.505Z,99575.06
2023-03-22T00:06:44.250Z,99578.75
2023-03-22T00:07:15.986Z,99579.72
2023-03-22T00:07:50.386Z,99576.38
2023-03-22T00:08:22.134Z,99575.16
2023-03-22T00:08:54.642Z,99578.66
2023-03-22T00:09:26.467Z,99580.50
2023-03-22T00:09:58.230Z,99578.28
2023-03-22T00:10:30.001Z,99569.56
2023-03-22T00:11:02.709Z,99573.94
2023-03-22T00:11:34.630Z,99578.63
2023-03-22T00:12:06.640Z,99575.63
2023-03-22T00:12:38.371Z,99576.63
2023-03-22T00:13:11.586Z,99577.47
2023-03-22T00:13:44.045Z,99582.69
2023-03-22T00:14:15.889Z,99577.31
2023-03-22T00:14:48.832Z,99570.63
2023-03-22T00:15:20.716Z,99576.69
2023-03-22T00:15:52.522Z,99570.47
2023-03-22T00:16:24.731Z,99570.00
2023-03-22T00:16:56.677Z,99575.19
2023-03-22T00:17:28.636Z,99570.84
2023-03-22T00:18:02.168Z,99573.38
2023-03-22T00:18:33.917Z,99568.84
2023-03-22T00:19:05.665Z,99567.22
2023-03-22T00:19:37.565Z,99567.06
2023-03-22T00:20:11.537Z,99572.25
2023-03-22T00:20:54.604Z,99566.88
2023-03-22T00:21:26.368Z,99570.13
2023-03-22T00:21:58.131Z,99563.75
2023-03-22T00:22:29.952Z,99562.75
2023-03-22T00:23:01.712Z,99561.25
2023-03-22T00:23:33.484Z,99566.75
2023-03-22T00:24:05.452Z,99560.41
2023-03-22T00:24:37.714Z,99565.44
2023-03-22T00:25:10.555Z,99563.59
2023-03-22T00:25:44.349Z,99562.59
2023-03-22T00:26:17.501Z,99564.97
2023-03-22T00:26:49.271Z,99564.13
2023-03-22T00:27:21.140Z,99562.13
2023-03-22T00:27:53.325Z,99566.19
2023-03-22T00:28:25.419Z,99558.97
2023-03-22T00:28:57.160Z,99562.31
2023-03-22T00:29:28.942Z,99553.97
2023-03-22T00:30:00.886Z,99551.78
2023-03-22T00:30:32.605Z,99551.47
2023-03-22T00:31:05.457Z,99558.34
2023-03-22T00:31:37.240Z,99549.28
2023-03-22T00:32:09.002Z,99554.66
2023-03-22T00:32:42.558Z,99560.19
2023-03-22T00:33:14.345Z,99555.00
2023-03-22T00:33:46.154Z,99554.84
2023-03-22T00:34:18.124Z,99557.50
2023-03-22T00:34:49.981Z,99557.50
2023-03-22T00:35:21.823Z,99563.38
2023-03-22T00:36:13.828Z,99557.38
2023-03-22T00:36:45.543Z,99552.84
2023-03-22T00:37:18.032Z,99551.03
2023-03-22T00:37:51.749Z,99557.22
2023-03-22T00:38:35.844Z,99551.03
2023-03-22T00:39:13.069Z,99544.13
2023-03-22T00:39:45.027Z,99555.19
2023-03-22T00:40:18.342Z,99554.50
2023-03-22T00:40:50.221Z,99546.78
2023-03-22T00:41:23.322Z,99550.31
2023-03-22T00:41:55.130Z,99551.31
2023-03-22T00:42:27.243Z,99547.91
2023-03-22T00:42:59.431Z,99548.94
2023-03-22T00:43:31.276Z,99541.03
2023-03-22T00:44:02.997Z,99546.59
2023-03-22T00:44:34.835Z,99546.06
2023-03-22T00:45:09.016Z,99549.06
2023-03-22T00:45:41.212Z,99539.47
2023-03-22T00:46:14.555Z,99549.53
2023-03-22T00:46:46.356Z,99551.38
2023-03-22T00:47:18.267Z,99548.03
2023-03-22T00:47:50.362Z,99544.97
2023-03-22T00:48:22.809Z,99552.38
2023-03-22T00:48:54.564Z,99544.59
2023-03-22T00:49:27.332Z,99544.91
2023-03-22T00:49:59.461Z,99555.78
2023-03-22T00:50:31.232Z,99551.44
2023-03-22T00:51:03.393Z,99544.38
2023-03-22T00:51:35.124Z,99544.72
2023-03-22T00:52:06.882Z,99545.69
2023-03-22T00:52:38.661Z,99552.06
2023-03-22T00:53:10.418Z,99549.53
2023-03-22T00:53:43.654Z,99547.88
2023-03-22T00:54:17.100Z,99547.31
2023-03-22T00:54:48.946Z,99540.44
2023-03-22T00:55:20.759Z,99544.13
2023-03-22T00:55:52.580Z,99543.44
2023-03-22T00:56:25.660Z,99547.13
2023-03-22T00:56:57.374Z,99547.28
2023-03-22T00:57:29.131Z,99539.56
2023-03-22T00:58:01.081Z,99538.72
2023-03-22T00:58:33.342Z,99539.19
2023-03-22T00:59:05.258Z,99542.72
2023-03-22T00:59:38.712Z,99541.19
2023-03-22T01:00:16.207Z,99539.19
2023-03-22T01:00:48.542Z,99535.81
2023-03-22T01:01:20.546Z,99542.34
2023-03-22T01:01:52.328Z,99542.50
2023-03-22T01:02:29.687Z,99536.13
2023-03-22T01:03:04.756Z,99537.16
2023-03-22T01:03:36.674Z,99540.81
2023-03-22T01:04:08.577Z,99541.84
2023-03-22T01:04:47.981Z,99542.66
2023-03-22T01:05:22.068Z,99537.31
2023-03-22T01:05:56.789Z,99541.66
2023-03-22T01:06:28.599Z,99536.31
2023-03-22T01:07:02.146Z,99531.09
2023-03-22T01:07:33.916Z,99540.00
2023-03-22T01:08:09.278Z,99533.63
2023-03-22T01:08:41.165Z,99535.59
2023-03-22T01:09:15.066Z,99534.47
2023-03-22T01:09:48.676Z,99533.63
2023-03-22T01:10:20.497Z,99536.31
2023-03-22T01:10:52.643Z,99531.09
2023-03-22T01:11:24.694Z,99542.66
2023-03-22T01:11:57.899Z,99537.44
2023-03-22T01:12:29.664Z,99536.59
2023-03-22T01:13:01.441Z,99538.28
2023-03-22T01:13:33.599Z,99536.47
2023-03-22T01:14:05.278Z,99538.28
2023-03-22T01:14:37.059Z,99543.66
2023-03-22T01:15:10.385Z,99540.13
2023-03-22T01:15:42.235Z,99538.63
2023-03-22T01:16:13.983Z,99539.28
2023-03-22T01:16:45.827Z,99543.81
2023-03-22T01:17:17.648Z,99540.28
2023-03-22T01:17:49.426Z,99544.66
2023-03-22T01:18:22.400Z,99534.75
2023-03-22T01:18:54.158Z,99537.59
2023-03-22T01:19:27.496Z,99539.28
2023-03-22T01:19:59.380Z,99539.00
2023-03-22T01:20:32.324Z,99539.16
2023-03-22T01:21:04.415Z,99535.47
2023-03-22T01:21:36.218Z,99537.31
2023-03-22T01:22:08.957Z,99529.09
2023-03-22T01:22:41.091Z,99529.25
2023-03-22T01:23:12.863Z,99538.16
2023-03-22T01:23:44.719Z,99535.31
2023-03-22T01:24:16.911Z,99540.66
2023-03-22T01:24:50.140Z,99529.94
2023-03-22T01:25:21.938Z,99532.47
2023-03-22T01:25:53.701Z,99535.97
2023-03-22T01:26:25.490Z,99526.41
2023-03-22T01:26:57.544Z,99534.13
2023-03-22T01:27:29.288Z,99532.28
2023-03-22T01:28:02.776Z,99528.09
2023-03-22T01:28:34.558Z,99530.78
2023-03-22T01:29:06.381Z,99530.44
2023-03-22T01:29:38.182Z,99536.81
2023-03-22T01:30:11.200Z,99542.03
2023-03-22T01:30:43.170Z,99535.31
2023-03-22T01:31:14.979Z,99534.28
2023-03-22T01:31:46.748Z,99532.47
2023-03-22T01:32:18.471Z,99534.13
2023-03-22T01:32:50.342Z,99531.31
2023-03-22T01:33:22.703Z,99534.00
2023-03-22T01:33:54.441Z,99535.69
2023-03-22T01:34:26.857Z,99537.34
2023-03-22T01:34:58.818Z,99527.31
2023-03-22T01:35:30.967Z,99537.03
2023-03-22T01:36:02.748Z,99533.50
2023-03-22T01:36:34.541Z,99534.22
2023-03-22T01:37:06.309Z,99533.50
2023-03-22T01:37:38.075Z,99524.13
2023-03-22T01:38:09.928Z,99534.66
2023-03-22T01:38:41.741Z,99531.53
2023-03-22T01:39:13.578Z,99528.97
2023-03-22T01:39:45.543Z,99532.50
2023-03-22T01:40:17.980Z,99528.97
2023-03-22T01:40:49.749Z,99528.84
2023-03-22T01:41:22.162Z,99528.13
2023-03-22T01:41:53.941Z,99529.81
2023-03-22T01:42:26.705Z,99533.03
2023-03-22T01:42:58.606Z,99525.16
2023-03-22T01:43:30.625Z,99526.84
2023-03-22T01:44:11.305Z,99532.88
2023-03-22T01:44:47.104Z,99526.50
2023-03-22T01:45:35.074Z,99527.50
2023-03-22T01:46:06.876Z,99529.19
2023-03-22T01:46:40.329Z,99538.78
2023-03-22T01:47:12.139Z,99527.88
2023-03-22T01:47:52.300Z,99525.38
2023-03-22T01:48:35.798Z,99525.03
2023-03-22T01:49:13.537Z,99521.50
2023-03-22T01:49:45.428Z,99530.22
2023-03-22T01:50:18.453Z,99522.34
2023-03-22T01:51:15.351Z,99518.66
2023-03-22T01:51:51.117Z,99524.41
2023-03-22T01:52:22.898Z,99523.38
2023-03-22T01:52:57.509Z,99525.09
2023-03-22T01:53:34.139Z,99529.28
2023-03-22T01:54:29.394Z,99523.94
2023-03-22T01:55:01.929Z,99521.25
2023-03-22T01:55:34.262Z,99528.97
2023-03-22T01:56:06.522Z,99528.81
2023-03-22T01:56:41.298Z,99520.78
2023-03-22T01:57:13.590Z,99524.28
2023-03-22T01:57:46.056Z,99517.09
2023-03-22T01:58:18.343Z,99520.44
2023-03-22T01:58:52.110Z,99519.44
2023-03-22T01:59:25.206Z,99514.06
2023-03-22T01:59:57.590Z,99521.97
2023-03-22T02:00:29.800Z,99519.16
2023-03-22T02:01:01.999Z,99519.16
2023-03-22T02:01:35.454Z,99518.16
2023-03-22T02:02:07.997Z,99515.31
2023-03-22T02:02:40.170Z,99516.13
2023-03-22T02:03:15.772Z,99515.31
2023-03-22T02:04:03.157Z,99517.69
2023-03-22T02:04:39.199Z,99516.50
2023-03-22T02:05:12.383Z,99518.19
2023-03-22T02:05:44.492Z,99516.34
2023-03-22T02:06:18.039Z,99514.66
2023-03-22T02:06:55.724Z,99520.69
2023-03-22T02:07:28.000Z,99528.59
2023-03-22T02:07:59.844Z,99523.06
2023-03-22T02:08:33.625Z,99520.38
2023-03-22T02:09:11.235Z,99518.53
2023-03-22T02:09:43.481Z,99521.06
2023-03-22T02:10:19.180Z,99518.22
2023-03-22T02:10:52.046Z,99521.75
2023-03-22T02:11:41.710Z,99516.41
2023-03-22T02:12:39.610Z,99524.09
2023-03-22T02:13:38.957Z,99517.72
2023-03-22T02:14:48.817Z,99520.09
2023-03-22T02:15:42.973Z,99526.31
2023-03-22T02:16:38.282Z,99525.31
2023-03-22T02:17:13.256Z,99527.66
2023-03-22T02:17:51.424Z,99524.81
2023-03-22T02:18:38.884Z,99521.97
2023-03-22T02:19:42.389Z,99528.00
2023-03-22T02:20:38.869Z,99518.09
2023-03-22T02:21:40.842Z,99526.69
2023-03-22T02:22:39.099Z,99532.72
2023-03-22T02:23:22.879Z,99533.25
2023-03-22T02:24:28.312Z,99528.88
2023-03-22T02:25:33.950Z,99537.78
2023-03-22T02:26:44.124Z,99530.91
2023-03-22T02:27:54.253Z,99532.91
2023-03-22T02:28:43.992Z,99529.59
2023-03-22T02:29:39.808Z,99532.25
2023-03-22T02:30:39.508Z,99530.78
2023-03-22T02:31:39.296Z,99533.63
2023-03-22T02:32:29.994Z,99531.44
2023-03-22T02:33:19.789Z,99531.81
2023-03-22T02:34:28.818Z,99528.47
2023-03-22T02:35:32.023Z,99525.81
2023-03-22T02:36:39.327Z,99525.97
2023-03-22T02:37:33.922Z,99523.28
2023-03-22T02:38:26.988Z,99527.50
2023-03-22T02:39:08.490Z,99522.47
2023-03-22T02:39:52.132Z,99523.13
2023-03-22T02:40:41.704Z,99521.94
2023-03-22T02:41:25.556Z,99523.47
2023-03-22T02:42:03.142Z,99524.28
2023-03-22T02:42:52.765Z,99528.47
2023-03-22T02:43:48.532Z,99517.56
2023-03-22T02:44:23.345Z,99530.66
2023-03-22T02:44:57.952Z,99522.44
2023-03-22T02:45:38.239Z,99518.72
2023-03-22T02:46:23.607Z,99522.94
2023-03-22T02:47:04.947Z,99521.56
2023-03-22T02:47:39.283Z,99527.31
2023-03-22T02:48:22.721Z,99523.63
2023-03-22T02:49:02.757Z,99525.13
2023-03-22T02:49:50.160Z,99523.59
2023-03-22T02:50:46.628Z,99522.25
2023-03-22T02:51:25.862Z,99525.94
2023-03-22T02:52:39.418Z,99520.22
2023-03-22T02:53:23.810Z,99524.22
2023-03-22T02:54:08.361Z,99534.66
2023-03-22T02:54:50.824Z,99532.81
2023-03-22T02:55:52.225Z,99530.59
2023-03-22T02:56:54.320Z,99527.38
2023-03-22T02:57:44.052Z,99529.91
2023-03-22T02:58:22.257Z,99533.75
2023-03-22T02:58:59.640Z,99534.09
2023-03-22T02:59:37.722Z,99531.72
2023-03-22T03:00:14.170Z,99531.34
2023-03-22T03:00:51.174Z,99534.72
2023-03-22T03:01:29.861Z,99528.97
2023-03-22T03:02:04.589Z,99525.97
2023-03-22T03:02:41.581Z,99529.13
2023-03-22T03:03:18.404Z,99529.63
2023-03-22T03:03:55.208Z,99529.44
2023-03-22T03:04:34.672Z,99531.13
2023-03-22T03:05:08.681Z,99525.72
2023-03-22T03:05:48.931Z,99530.94
2023-03-22T03:06:25.848Z,99533.63
2023-03-22T03:07:09.483Z,99528.59
2023-03-22T03:07:46.760Z,99530.09
2023-03-22T03:08:21.156Z,99526.94
2023-03-22T03:08:54.617Z,99529.44
2023-03-22T03:09:26.788Z,99533.63
2023-03-22T03:09:58.967Z,99533.63
2023-03-22T03:10:31.617Z,99535.16
2023-03-22T03:11:03.552Z,99538.69
2023-03-22T03:11:36.665Z,99535.47
2023-03-22T03:12:23.729Z,99537.34
2023-03-22T03:12:55.504Z,99540.22
2023-03-22T03:13:27.619Z,99534.19
2023-03-22T03:13:59.541Z,99531.13
2023-03-22T03:14:32.777Z,99541.38
2023-03-22T03:15:14.857Z,99539.53
2023-03-22T03:15:52.797Z,99539.34
2023-03-22T03:16:29.460Z,99540.00
2023-03-22T03:17:13.310Z,99540.66
2023-03-22T03:17:56.565Z,99535.94
2023-03-22T03:19:05.625Z,99541.16
2023-03-22T03:20:03.816Z,99535.94
2023-03-22T03:21:07.569Z,99537.94
2023-03-22T03:21:59.633Z,99541.81
2023-03-22T03:23:08.590Z,99532.34
2023-03-22T03:23:49.698Z,99539.25
2023-03-22T03:24:31.749Z,99536.91
2023-03-22T03:25:23.560Z,99545.00
2023-03-22T03:25:58.050Z,99545.00
2023-03-22T03:26:40.727Z,99542.66
2023-03-22T03:27:23.677Z,99547.50
2023-03-22T03:28:30.078Z,99549.22
2023-03-22T03:29:05.466Z,99545.31
2023-03-22T03:29:53.041Z,99543.63
2023-03-22T03:30:33.893Z,99536.56
2023-03-22T03:31:11.817Z,99540.75
2023-03-22T03:32:07.604Z,99541.41
2023-03-22T03:32:53.747Z,99541.91
2023-03-22T03:33:33.205Z,99543.75
2023-03-22T03:34:30.098Z,99544.94
2023-03-22T03:35:10.972Z,99551.00
2023-03-22T03:36:00.126Z,99553.34
2023-03-22T03:36:37.924Z,99546.47
2023-03-22T03:37:15.986Z,99550.63
2023-03-22T03:37:54.030Z,99548.97
2023-03-22T03:38:30.896Z,99547.94
2023-03-22T03:39:08.050Z,99554.34
2023-03-22T03:39:46.704Z,99550.38
2023-03-22T03:40:24.757Z,99551.63
2023-03-22T03:41:03.957Z,99548.22
2023-03-22T03:41:37.104Z,99551.28
2023-03-22T03:42:13.901Z,99555.38
2023-03-22T03:42:51.969Z,99558.75
2023-03-22T03:43:25.719Z,99560.06
2023-03-22T03:43:59.554Z,99557.03
2023-03-22T03:44:36.055Z,99561.94
2023-03-22T03:45:09.145Z,99557.91
2023-03-22T03:45:41.720Z,99560.75
2023-03-22T03:46:14.734Z,99565.28
2023-03-22T03:46:48.341Z,99556.88
2023-03-22T03:47:21.058Z,99566.47
2023-03-22T03:47:59.097Z,99568.13
2023-03-22T03:48:35.071Z,99565.94
2023-03-22T03:49:10.107Z,99567.44
2023-03-22T03:49:42.279Z,99562.59
2023-03-22T03:50:16.617Z,99563.38
2023-03-22T03:50:52.502Z,99568.75
2023-03-22T03:51:27.308Z,99559.88
2023-03-22T03:52:00.119Z,99570.59
2023-03-22T03:52:32.481Z,99571.63
2023-03-22T03:53:04.450Z,99572.63
2023-03-22T03:53:36.245Z,99573.63
2023-03-22T03:54:08.027Z,99563.19
2023-03-22T03:54:39.975Z,99566.59
2023-03-22T03:55:11.930Z,99570.94
2023-03-22T03:55:43.820Z,99570.28
2023-03-22T03:56:15.723Z,99564.56
2023-03-22T03:56:48.037Z,99563.72
2023-03-22T03:57:19.804Z,99559.19
2023-03-22T03:57:51.632Z,99564.03
2023-03-22T03:58:23.493Z,99554.28
2023-03-22T03:58:55.763Z,99564.88
2023-03-22T03:59:27.569Z,99564.72
2023-03-22T03:59:59.372Z,99567.59
2023-03-22T04:00:31.285Z,99560.88
2023-03-22T04:01:04.182Z,99568.25
2023-03-22T04:01:36.529Z,99564.56
2023-03-22T04:02:08.917Z,99565.41
2023-03-22T04:02:44.158Z,99569.47
2023-03-22T04:03:16.190Z,99559.88
2023-03-22T04:03:50.747Z,99564.56
2023-03-22T04:04:29.547Z,99564.06
2023-03-22T04:05:01.654Z,99563.91
2023-03-22T04:05:34.086Z,99571.78
2023-03-22T04:06:06.555Z,99573.94
2023-03-22T04:06:39.571Z,99561.00
2023-03-22T04:07:11.569Z,99564.72
2023-03-22T04:07:43.357Z,99568.75
2023-03-22T04:08:15.407Z,99572.63
2023-03-22T04:08:53.609Z,99571.59
2023-03-22T04:09:28.053Z,99573.28
2023-03-22T04:10:00.247Z,99566.03
2023-03-22T04:10:32.016Z,99568.19
2023-03-22T04:11:03.889Z,99572.06
2023-03-22T04:11:36.108Z,99575.91
2023-03-22T04:12:11.575Z,99572.53
2023-03-22T04:12:43.297Z,99566.50
2023-03-22T04:13:15.094Z,99578.75
2023-03-22T04:13:46.905Z,99570.38
2023-03-22T04:14:18.852Z,99574.25
2023-03-22T04:14:50.686Z,99568.72
2023-03-22T04:15:22.941Z,99572.72
2023-03-22T04:15:57.276Z,99567.34
2023-03-22T04:16:29.141Z,99572.72
2023-03-22T04:17:01.317Z,99577.09
2023-03-22T04:17:33.124Z,99571.38
2023-03-22T04:18:05.144Z,99569.31
2023-03-22T04:18:37.131Z,99578.09
2023-03-22T04:19:08.965Z,99574.69
2023-03-22T04:19:42.306Z,99576.72
2023-03-22T04:20:14.634Z,99575.56
2023-03-22T04:20:47.243Z,99572.53
2023-03-22T04:21:19.885Z,99581.78
2023-03-22T04:21:53.331Z,99575.41
2023-03-22T04:22:26.413Z,99574.69
2023-03-22T04:22:58.204Z,99569.66
2023-03-22T04:23:29.992Z,99576.88
2023-03-22T04:24:01.837Z,99578.91
2023-03-22T04:24:33.608Z,99580.03
2023-03-22T04:25:11.823Z,99577.69
2023-03-22T04:25:43.826Z,99584.56
2023-03-22T04:26:16.040Z,99579.22
2023-03-22T04:26:48.109Z,99574.19
2023-03-22T04:27:21.615Z,99579.19
2023-03-22T04:27:55.918Z,99580.56
2023-03-22T04:28:27.698Z,99573.47
2023-03-22T04:28:59.733Z,99577.16
2023-03-22T04:29:32.344Z,99587.41
2023-03-22T04:30:05.956Z,99580.31
2023-03-22T04:30:39.058Z,99579.84
2023-03-22T04:31:11.048Z,99583.38
2023-03-22T04:31:42.963Z,99581.22
2023-03-22T04:32:23.038Z,99583.00
2023-03-22T04:32:55.034Z,99577.97
2023-03-22T04:33:26.759Z,99579.16
2023-03-22T04:34:00.543Z,99575.47
2023-03-22T04:34:32.663Z,99587.22
2023-03-22T04:35:05.569Z,99582.34
2023-03-22T04:35:37.392Z,99576.31
2023-03-22T04:36:16.216Z,99577.97
2023-03-22T04:36:48.052Z,99581.00
2023-03-22T04:37:22.608Z,99582.97
2023-03-22T04:37:54.441Z,99579.16
2023-03-22T04:38:26.293Z,99579.28
2023-03-22T04:38:58.333Z,99581.84
2023-03-22T04:39:30.197Z,99582.81
2023-03-22T04:40:02.155Z,99586.38
2023-03-22T04:40:36.745Z,99581.00
2023-03-22T04:41:09.068Z,99585.50
2023-03-22T04:41:40.881Z,99587.53
2023-03-22T04:42:13.143Z,99581.19
2023-03-22T04:42:45.657Z,99582.38
2023-03-22T04:43:19.007Z,99579.38
2023-03-22T04:43:51.048Z,99582.25
2023-03-22T04:44:22.893Z,99580.25
2023-03-22T04:44:54.637Z,99578.25
2023-03-22T04:45:29.338Z,99586.31
2023-03-22T04:46:04.307Z,99576.53
2023-03-22T04:46:37.214Z,99582.44
2023-03-22T04:47:09.065Z,99583.28
2023-03-22T04:47:40.937Z,99585.78
2023-03-22T04:48:12.753Z,99582.72
2023-03-22T04:48:44.727Z,99581.41
2023-03-22T04:49:17.118Z,99584.56
2023-03-22T04:49:48.942Z,99586.75
2023-03-22T04:50:20.964Z,99580.69
2023-03-22T04:50:53.519Z,99585.06
2023-03-22T04:51:26.680Z,99586.59
2023-03-22T04:51:58.492Z,99585.91
2023-03-22T04:52:30.294Z,99579.69
2023-03-22T04:53:02.058Z,99581.69
2023-03-22T04:53:38.832Z,99588.44
2023-03-22T04:54:10.646Z,99588.09
2023-03-22T04:54:42.466Z,99589.13
2023-03-22T04:55:14.266Z,99588.28
2023-03-22T04:55:46.033Z,99593.84
2023-03-22T04:56:18.101Z,99596.19
2023-03-22T04:56:50.760Z,99596.84
2023-03-22T04:57:22.804Z,99589.13
2023-03-22T04:57:54.916Z,99598.56
2023-03-22T04:58:27.769Z,99594.69
2023-03-22T04:58:59.584Z,99595.41
2023-03-22T04:59:31.376Z,99600.59
2023-03-22T05:00:07.840Z,99602.28
2023-03-22T05:00:42.516Z,99593.91
2023-03-22T05:01:17.554Z,99595.59
2023-03-22T05:01:51.657Z,99598.09
2023-03-22T05:02:23.712Z,99599.94
2023-03-22T05:02:56.582Z,99604.97
2023-03-22T05:03:28.628Z,99598.59
2023-03-22T05:04:00.552Z,99596.78
2023-03-22T05:04:32.465Z,99599.09
2023-03-22T05:05:04.823Z,99593.22
2023-03-22T05:05:36.687Z,99592.84
2023-03-22T05:06:10.215Z,99598.22
2023-03-22T05:06:42.637Z,99603.75
2023-03-22T05:07:14.459Z,99599.09
2023-03-22T05:07:46.383Z,99599.59
2023-03-22T05:08:18.659Z,99596.72
2023-03-22T05:08:50.638Z,99601.25
2023-03-22T05:09:23.627Z,99603.94
2023-03-22T05:09:55.533Z,99599.28
2023-03-22T05:10:27.331Z,99605.31
2023-03-22T05:11:04.568Z,99602.47
2023-03-22T05:11:37.159Z,99607.34
2023-03-22T05:12:08.995Z,99602.81
2023-03-22T05:12:41.007Z,99609.03
2023-03-22T05:13:12.804Z,99607.34
2023-03-22T05:13:44.630Z,99609.03
2023-03-22T05:14:16.533Z,99607.00
2023-03-22T05:14:48.445Z,99605.16
2023-03-22T05:15:20.260Z,99601.44
2023-03-22T05:15:52.289Z,99609.00
2023-03-22T05:16:25.541Z,99609.31
2023-03-22T05:16:57.725Z,99612.19
2023-03-22T05:17:29.527Z,99605.59
2023-03-22T05:18:01.340Z,99607.97
2023-03-22T05:18:33.583Z,99606.81
2023-03-22T05:19:06.759Z,99607.66
2023-03-22T05:19:38.699Z,99610.31
2023-03-22T05:20:11.728Z,99615.53
2023-03-22T05:20:44.338Z,99612.19
2023-03-22T05:21:22.087Z,99614.72
2023-03-22T05:21:58.673Z,99620.31
2023-03-22T05:22:30.472Z,99618.97
2023-03-22T05:23:05.409Z,99620.13
2023-03-22T05:23:37.202Z,99621.47
2023-03-22T05:24:09.106Z,99621.16
2023-03-22T05:24:40.876Z,99617.81
2023-03-22T05:25:12.735Z,99620.63
2023-03-22T05:25:45.320Z,99615.97
2023-03-22T05:26:20.550Z,99616.44
2023-03-22T05:26:54.023Z,99620.69
2023-03-22T05:27:31.762Z,99617.13
2023-03-22T05:28:04.293Z,99610.78
2023-03-22T05:28:37.578Z,99611.59
2023-03-22T05:29:10.974Z,99615.63
2023-03-22T05:29:45.111Z,99613.13
2023-03-22T05:30:17.033Z,99623.88
2023-03-22T05:30:50.092Z,99616.81
2023-03-22T05:31:22.603Z,99615.13
2023-03-22T05:31:54.496Z,99621.19
2023-03-22T05:32:29.418Z,99614.47
2023-03-22T05:33:04.012Z,99612.94
2023-03-22T05:33:35.984Z,99620.16
2023-03-22T05:34:08.218Z,99616.63
2023-03-22T05:34:42.886Z,99609.94
2023-03-22T05:35:14.699Z,99614.13
2023-03-22T05:35:46.597Z,99612.63
2023-03-22T05:36:20.814Z,99617.13
2023-03-22T05:36:52.632Z,99623.50
2023-03-22T05:37:24.581Z,99615.44
2023-03-22T05:37:57.663Z,99618.66
2023-03-22T05:38:29.572Z,99615.97
2023-03-22T05:39:01.505Z,99617.34
2023-03-22T05:39:33.481Z,99618.19
2023-03-22T05:40:10.026Z,99617.16
2023-03-22T05:40:42.115Z,99618.84
2023-03-22T05:41:14.832Z,99621.53
2023-03-22T05:41:46.967Z,99616.31
2023-03-22T05:42:18.765Z,99620.88
2023-03-22T05:42:50.987Z,99617.34
2023-03-22T05:43:22.895Z,99623.22
2023-03-22T05:43:55.176Z,99620.34
2023-03-22T05:44:27.029Z,99620.53
2023-03-22T05:44:58.797Z,99617.66
2023-03-22T05:45:32.537Z,99621.19
2023-03-22T05:46:08.834Z,99615.66
2023-03-22T05:46:40.957Z,99622.91
2023-03-22T05:47:12.910Z,99622.72
2023-03-22T05:47:44.829Z,99626.25
2023-03-22T05:48:17.212Z,99619.38
2023-03-22T05:48:49.070Z,99622.91
2023-03-22T05:49:20.922Z,99618.72
2023-03-22T05:49:53.113Z,99623.44
2023-03-22T05:50:25.443Z,99630.13
2023-03-22T05:50:57.248Z,99624.44
2023-03-22T05:51:29.923Z,99615.38
2023-03-22T05:52:04.409Z,99627.47
2023-03-22T05:52:36.840Z,99620.06
2023-03-22T05:53:08.748Z,99623.44
2023-03-22T05:53:40.720Z,99629.47
2023-03-22T05:54:12.480Z,99623.94
2023-03-22T05:54:44.287Z,99631.31
2023-03-22T05:55:19.938Z,99622.28
2023-03-22T05:55:53.071Z,99624.28
2023-03-22T05:56:25.972Z,99621.41
2023-03-22T05:56:58.875Z,99623.44
2023-03-22T05:57:30.662Z,99622.91
2023-03-22T05:58:03.288Z,99623.25
2023-03-22T05:58:35.227Z,99627.78
2023-03-22T05:59:07.478Z,99627.63
2023-03-22T05:59:39.304Z,99623.25
2023-03-22T06:00:15.253Z,99622.59
2023-03-22T06:00:50.007Z,99627.28
2023-03-22T06:01:23.221Z,99634.19
2023-03-22T06:01:55.536Z,99626.97
2023-03-22T06:02:27.681Z,99628.63
2023-03-22T06:03:03.965Z,99626.59
2023-03-22T06:03:36.036Z,99628.81
2023-03-22T06:04:07.917Z,99626.59
2023-03-22T06:04:41.785Z,99625.59
2023-03-22T06:05:16.085Z,99628.16
2023-03-22T06:05:50.810Z,99626.28
2023-03-22T06:06:24.017Z,99621.94
2023-03-22T06:06:56.137Z,99628.81
2023-03-22T06:07:27.951Z,99632.16
2023-03-22T06:08:00.423Z,99632.34
2023-03-22T06:08:33.815Z,99628.63
2023-03-22T06:09:16.569Z,99624.78
2023-03-22T06:09:50.338Z,99626.28
2023-03-22T06:10:23.072Z,99626.78
2023-03-22T06:10:55.056Z,99631.84
2023-03-22T06:11:26.891Z,99633.34
2023-03-22T06:11:59.303Z,99623.94
2023-03-22T06:12:31.591Z,99627.13
2023-03-22T06:13:03.433Z,99634.19
2023-03-22T06:13:35.478Z,99626.47
2023-03-22T06:14:07.284Z,99627.13
2023-03-22T06:14:39.129Z,99635.72
2023-03-22T06:15:11.945Z,99629.16
2023-03-22T06:15:43.727Z,99628.31
2023-03-22T06:16:16.278Z,99628.13
2023-03-22T06:16:48.256Z,99626.81
2023-03-22T06:17:20.339Z,99630.50
2023-03-22T06:17:52.180Z,99631.84
2023-03-22T06:18:24.057Z,99635.53
2023-03-22T06:18:56.111Z,99629.16
2023-03-22T06:19:28.132Z,99633.19
2023-03-22T06:20:00.093Z,99631.19
2023-03-22T06:20:31.958Z,99630.50
2023-03-22T06:21:03.914Z,99628.00
2023-03-22T06:21:35.798Z,99635.22
2023-03-22T06:22:07.666Z,99628.50
2023-03-22T06:22:40.419Z,99638.22
2023-03-22T06:23:12.300Z,99637.56
2023-03-22T06:23:44.166Z,99649.00
2023-03-22T06:24:16.232Z,99638.59
2023-03-22T06:24:49.587Z,99637.25
2023-03-22T06:25:21.368Z,99640.81
2023-03-22T06:25:53.309Z,99637.25
2023-03-22T06:26:25.109Z,99636.25
2023-03-22T06:26:56.957Z,99624.84
2023-03-22T06:27:29.266Z,99631.72
2023-03-22T06:28:02.805Z,99640.31
2023-03-22T06:28:34.577Z,99631.53
2023-03-22T06:29:06.639Z,99639.28
2023-03-22T06:29:38.540Z,99643.16
2023-03-22T06:30:10.542Z,99639.78
2023-03-22T06:30:42.777Z,99638.09
2023-03-22T06:31:14.769Z,99642.78
2023-03-22T06:31:47.965Z,99637.41
2023-03-22T06:32:21.009Z,99635.38
2023-03-22T06:32:52.962Z,99633.72
2023-03-22T06:33:24.847Z,99643.78
2023-03-22T06:33:56.716Z,99637.41
2023-03-22T06:34:28.911Z,99633.03
2023-03-22T06:35:00.789Z,99639.56
2023-03-22T06:35:33.691Z,99636.56
2023-03-22T06:36:06.167Z,99634.88
2023-03-22T06:36:37.975Z,99630.47
2023-03-22T06:37:09.746Z,99640.09
2023-03-22T06:37:41.954Z,99635.03
2023-03-22T06:38:13.772Z,99632.19
2023-03-22T06:38:45.634Z,99637.88
2023-03-22T06:39:17.437Z,99633.84
2023-03-22T06:39:49.438Z,99633.34
2023-03-22T06:40:21.352Z,99638.69
2023-03-22T06:40:53.185Z,99632.94
2023-03-22T06:41:25.413Z,99641.03
2023-03-22T06:41:57.294Z,99647.44
2023-03-22T06:42:31.048Z,99648.81
2023-03-22T06:43:06.845Z,99643.41
2023-03-22T06:43:39.073Z,99638.72
2023-03-22T06:44:11.154Z,99639.19
2023-03-22T06:44:44.699Z,99637.19
2023-03-22T06:45:16.955Z,99637.00
2023-03-22T06:45:49.067Z,99636.66
2023-03-22T06:46:20.925Z,99638.03
2023-03-22T06:46:52.796Z,99641.56
2023-03-22T06:47:25.029Z,99645.41
2023-03-22T06:47:56.906Z,99640.22
2023-03-22T06:48:28.824Z,99637.84
2023-03-22T06:49:00.869Z,99639.69
2023-03-22T06:49:32.980Z,99641.22
2023-03-22T06:50:23.597Z,99644.72
2023-03-22T06:50:55.514Z,99646.09
2023-03-22T06:51:27.357Z,99640.19
2023-03-22T06:52:02.131Z,99645.22
2023-03-22T06:52:34.005Z,99644.88
2023-03-22T06:53:06.513Z,99641.50